NCAR-RAP Real-Time Weather Data

Output produced by METARs form (27 January 2020  08:48 UTC)
found at http://weather.rap.ucar.edu/surface/
 
 
 
K3S8 270835Z AUTO 00000KT 10SM FEW019 BKN042 OVC095 07/06 A3026 RMK AO2
 
K4S1 270835Z AUTO 19006KT 3SM BR BKN014 BKN019 BKN046 10/10 A3024 RMK AO2 P0001
 
K4S2 270835Z AUTO 00000KT 7SM SCT043 04/03 A3015 RMK AO2
 
K6S2 270835Z AUTO 00000KT 1SM BR OVC006 06/06 A3020 RMK AO2 T00620061
 
 
KAST 270803Z AUTO 22008KT 10SM BKN021 BKN029 OVC060 09/07 A3013 RMK AO2 T00890072
 
KBDN 270835Z AUTO 24007KT 10SM FEW030 FEW039 SCT055 04/M00 A3013 RMK AO2
 
KBKE 270837Z AUTO 11005KT 1 1/2SM BR BKN001 OVC110 00/M01 A3012 RMK AO2 T00001011
 
KBNO 270753Z AUTO 00000KT 10SM FEW048 SCT060 M01/M03 A3017 RMK AO2 SLP230 T10061028 400831017
 
KBOK 270756Z AUTO 16008KT 6SM -RA BR OVC004 09/09 A3027 RMK AO2 SLP253 P0004 T00940094
 
KCVO 270756Z AUTO 17008KT 10SM SCT044 08/07 A3020 RMK AO2 SLP229 T00780067 401280067
 
 
KDLS 270753Z AUTO 31007KT 10SM -RA BKN039 OVC047 07/05 A3015 RMK AO2 RAB49 SLP210 P0000 T00670050 401220039
 
KEUG 270754Z AUTO 15006KT 10SM BKN032 08/07 A3021 RMK AO2 RAE07DZB07E26 SLP231 P0002 T00830067 401330072
 
KGCD 270835Z AUTO 15006KT 10SM BKN060 OVC070 03/00 A3013 RMK AO2 T00291004
 
KHIO 270824Z 00000KT 3SM BR FEW006 FEW037 BKN055 05/05 A3017 RMK AO2 T00500050
 
KHRI 270753Z AUTO 29003KT 10SM BKN060 OVC095 06/03 A3010 RMK AO2 SLP195 T00610028 401390039 $
 
 
KLGD 270756Z AUTO 31003KT 10SM SCT080 OVC090 M01/M02 A3013 RMK AO2 SLP220 T10111017 400721017 FZRANO
 
KLKV 270753Z AUTO 18009KT 10SM OVC055 02/00 A3022 RMK AO2 SLP250 T00220000 400780006 FZRANO
 
KLMT 270753Z AUTO 00000KT 10SM SCT040 OVC050 03/M01 A3021 RMK AO2 RAB05E39 SLP230 P0000 T00281006 400830022
 
KMEH 270756Z AUTO 00000KT 10SM OVC060 M01/M02 A3008 RMK AO2 SLP206 I1000 T10061022 400501017
 
KMFR 270753Z AUTO 07003KT 10SM BKN048 OVC100 07/04 A3024 RMK AO2 SLP241 T00720044 401280072
 
KMMV 270820Z AUTO 17005KT 10SM BKN024 BKN030 OVC035 08/07 A3018 RMK AO2 T00780067
 
KONO 270753Z AUTO 18004KT 1/2SM FG BKN004 OVC011 03/02 A3018 RMK AO2 SLP233 T00280022
 
KONP 270835Z AUTO 17005KT 3SM BR SCT007 OVC013 08/08 A3021 RMK AO2
 
KOTH 270756Z AUTO 4SM BR FEW008 BKN015 OVC046 10/10 A3023 RMK AO2 RAB06E32 SLP237 P0000 T01000100 401390083 $
 
 
KPDT 270753Z AUTO 18008KT 10SM OVC070 06/01 A3010 RMK AO2 SLP192 T00560006 401170033
 
KPDX 270753Z 10005KT 10SM SCT040 SCT160 08/06 A3018 RMK AO2 SLP218 T00780056 401330078
 
KRBG 270753Z AUTO 00000KT 10SM FEW038 OVC055 09/04 A3022 RMK AO2 SLP234 T00940044 401440083
 
KRDM 270756Z AUTO 36003KT 10SM SCT042 OVC050 04/M01 A3013 RMK AO2 SLP206 T00391011 401110022
 
KREO 270752Z AUTO 22008KT 03/M02 A3015 RMK AO1 SLP219 T00281022
 
 
KS33 270835Z AUTO 18007KT 10SM BKN039 04/00 A3015 RMK AO2
 
KS39 270835Z AUTO 28003KT 10SM FEW037 OVC049 04/M00 A3013 RMK AO2
 
KSLE 270756Z AUTO 19007KT 10SM CLR 07/06 A3018 RMK AO2 SLP220 T00720056 401220067
 
KSPB 270831Z AUTO 00000KT 10SM BKN018 BKN046 04/03 A3017 RMK AO2 RAE0758 P0000 T00390033
 
KSXT 270719Z AUTO 20007KT 1/4SM FG VV001 02/02 A3017 RMK AO2 T00220017
 
KTMK 270835Z AUTO 00000KT 7SM BKN060 07/07 A3018 RMK AO2 P0001
 
KTTD 270753Z AUTO 18005KT 10SM BKN050 09/06 A3018 RMK AO2 SLP218 T00890056 401330089
 
KUAO 270809Z AUTO 21003KT 10SM BKN033 OVC043 08/06 A3019 RMK AO2 T00830061